createdAt,value
2018-12-10T00:00:32.576Z,94.73
2018-12-10T00:03:16.433Z,95.91
2018-12-10T00:05:51.444Z,96.17
2018-12-10T00:08:23.608Z,95.61
2018-12-10T00:10:55.849Z,95.78
2018-12-10T00:13:28.738Z,95.82
2018-12-10T00:16:00.955Z,96.11
2018-12-10T00:18:34.060Z,95.62
2018-12-10T00:21:07.298Z,96.36
2018-12-10T00:23:38.063Z,98.06
2018-12-10T00:26:14.898Z,97.34
2018-12-10T00:28:47.087Z,97.13
2018-12-10T00:31:23.231Z,97.11
2018-12-10T00:33:59.424Z,97.16
2018-12-10T00:36:36.023Z,97.38
2018-12-10T00:39:12.282Z,97.52
2018-12-10T00:41:44.629Z,96.99
2018-12-10T00:44:20.887Z,97.43
2018-12-10T00:46:53.278Z,96.55
2018-12-10T00:49:26.039Z,97.34
2018-12-10T00:51:58.704Z,96.90
2018-12-10T00:54:30.321Z,96.63
2018-12-10T00:57:02.914Z,96.91
2018-12-10T00:59:35.800Z,96.72
2018-12-10T01:02:08.051Z,96.78
2018-12-10T01:04:41.345Z,97.66
2018-12-10T01:07:14.068Z,98.35
2018-12-10T01:09:46.164Z,98.15
2018-12-10T01:12:17.340Z,97.93
2018-12-10T01:14:50.488Z,97.21
2018-12-10T01:17:23.601Z,97.32
2018-12-10T01:20:00.529Z,96.88
2018-12-10T01:22:32.815Z,96.59
2018-12-10T01:25:05.404Z,96.75
2018-12-10T01:27:38.439Z,95.90
2018-12-10T01:30:14.802Z,96.04
2018-12-10T01:32:47.442Z,95.43
2018-12-10T01:35:20.577Z,96.00
2018-12-10T01:37:53.386Z,96.25
2018-12-10T01:40:26.465Z,95.43
2018-12-10T01:42:56.924Z,95.02
2018-12-10T01:45:29.937Z,95.75
2018-12-10T01:48:02.963Z,94.70
2018-12-10T01:50:39.430Z,94.91
2018-12-10T01:53:10.139Z,96.16
2018-12-10T01:55:47.429Z,94.24
2018-12-10T01:58:20.584Z,94.87
2018-12-10T02:00:57.558Z,95.61
2018-12-10T02:03:34.717Z,94.74
2018-12-10T02:06:11.139Z,95.24
2018-12-10T02:08:44.267Z,95.09
2018-12-10T02:11:20.476Z,95.77
2018-12-10T02:13:52.632Z,95.21
2018-12-10T02:16:25.020Z,95.59
2018-12-10T02:18:57.485Z,95.82
2018-12-10T02:21:34.658Z,94.85
2018-12-10T02:24:06.819Z,96.76
2018-12-10T02:26:39.000Z,96.58
2018-12-10T02:29:15.239Z,94.06
2018-12-10T02:31:47.489Z,94.43
2018-12-10T02:34:20.814Z,94.74
2018-12-10T02:36:53.796Z,95.12
2018-12-10T02:39:26.791Z,95.82
2018-12-10T02:42:03.673Z,96.38
2018-12-10T02:44:40.108Z,97.17
2018-12-10T02:47:16.257Z,96.98
2018-12-10T02:49:48.417Z,97.43
2018-12-10T02:52:21.549Z,97.68
2018-12-10T02:54:54.406Z,98.21
2018-12-10T02:57:30.499Z,98.22
2018-12-10T03:00:06.745Z,97.02
2018-12-10T03:02:41.763Z,97.07
2018-12-10T03:05:13.852Z,96.13
2018-12-10T03:07:46.434Z,95.72
2018-12-10T03:10:18.696Z,95.81
2018-12-10T03:12:54.820Z,96.23
2018-12-10T03:22:56.971Z,96.74
2018-12-10T03:25:29.289Z,96.47
2018-12-10T03:28:02.035Z,95.48
2018-12-10T03:30:34.202Z,96.24
2018-12-10T03:33:06.207Z,95.40
2018-12-10T03:35:38.595Z,95.55
2018-12-10T03:38:11.560Z,96.42
2018-12-10T03:40:43.742Z,96.87
2018-12-10T03:43:13.975Z,96.42
2018-12-10T03:45:45.690Z,96.62
2018-12-10T03:48:21.773Z,96.32
2018-12-10T03:50:57.927Z,96.57
2018-12-10T03:53:30.243Z,95.96
2018-12-10T03:56:02.565Z,96.55
2018-12-10T03:58:34.858Z,96.34
2018-12-10T04:01:07.931Z,96.49
2018-12-10T04:03:38.376Z,96.55
2018-12-10T04:06:11.271Z,96.93
2018-12-10T04:08:47.445Z,97.12
2018-12-10T04:11:17.556Z,96.22
2018-12-10T04:13:47.674Z,96.45
2018-12-10T04:16:20.009Z,97.01
2018-12-10T04:18:52.387Z,96.93
2018-12-10T04:21:24.635Z,97.58
2018-12-10T04:24:00.942Z,95.45
2018-12-10T04:26:37.008Z,96.12
2018-12-10T04:29:13.356Z,97.95
2018-12-10T04:31:49.719Z,97.10
2018-12-10T04:34:21.717Z,97.13
2018-12-10T04:36:51.941Z,97.49
2018-12-10T04:39:24.977Z,96.25
2018-12-10T04:42:01.763Z,96.44
2018-12-10T04:44:32.362Z,96.41
2018-12-10T04:47:09.327Z,96.12
2018-12-10T04:49:45.299Z,96.30
2018-12-10T04:52:21.491Z,96.69
2018-12-10T04:54:57.821Z,96.95
2018-12-10T04:57:28.714Z,98.34
2018-12-10T05:00:01.128Z,98.60
2018-12-10T05:02:37.303Z,96.63
2018-12-10T05:05:13.404Z,96.57
2018-12-10T05:07:49.462Z,96.66
2018-12-10T05:10:21.995Z,97.44
2018-12-10T05:12:54.940Z,97.00
2018-12-10T05:15:27.137Z,97.17
2018-12-10T05:17:57.384Z,97.29
2018-12-10T05:20:34.303Z,97.70
2018-12-10T05:23:12.029Z,96.80
2018-12-10T05:25:44.617Z,96.37
2018-12-10T05:28:20.712Z,95.95
2018-12-10T05:30:53.056Z,95.46
2018-12-10T05:33:25.935Z,95.89
2018-12-10T05:35:58.023Z,95.94
2018-12-10T05:38:34.417Z,96.58
2018-12-10T05:41:06.633Z,96.56
2018-12-10T05:43:42.824Z,97.27
2018-12-10T05:46:19.096Z,97.73
2018-12-10T05:48:49.176Z,97.65
2018-12-10T05:51:25.369Z,98.22
2018-12-10T05:53:58.299Z,98.84
2018-12-10T05:56:30.535Z,98.77
2018-12-10T05:59:02.614Z,97.60
2018-12-10T06:01:35.952Z,97.73
2018-12-10T06:04:13.169Z,97.71
2018-12-10T06:06:43.571Z,97.12
2018-12-10T06:09:16.451Z,96.92
2018-12-10T06:11:48.822Z,96.85
2018-12-10T06:14:20.997Z,96.90
2018-12-10T06:16:57.111Z,96.44
2018-12-10T06:19:27.749Z,96.33
2018-12-10T06:22:00.560Z,96.93
2018-12-10T06:24:36.618Z,97.40
2018-12-10T06:27:09.826Z,98.09
2018-12-10T06:29:42.068Z,98.46
2018-12-10T06:32:18.439Z,98.31
2018-12-10T06:34:54.634Z,97.83
2018-12-10T06:37:37.567Z,96.45
2018-12-10T06:40:06.104Z,95.40
2018-12-10T06:42:42.450Z,96.01
2018-12-10T06:45:15.410Z,96.09
2018-12-10T06:47:45.658Z,96.54
2018-12-10T06:50:18.032Z,96.23
2018-12-10T06:52:54.317Z,96.45
2018-12-10T06:55:27.318Z,96.49
2018-12-10T06:57:59.358Z,95.47
2018-12-10T07:00:31.560Z,95.34
2018-12-10T07:03:03.927Z,95.49
2018-12-10T07:05:39.878Z,95.26
2018-12-10T07:08:10.197Z,95.67
2018-12-10T07:10:43.173Z,95.84
2018-12-10T07:13:19.287Z,95.95
2018-12-10T07:15:52.191Z,96.03
2018-12-10T07:18:24.437Z,95.58
2018-12-10T07:20:54.507Z,95.88
2018-12-10T07:23:26.817Z,96.20
2018-12-10T07:26:02.928Z,96.18
2018-12-10T07:28:39.043Z,95.98
2018-12-10T07:31:11.959Z,95.87
2018-12-10T07:33:43.200Z,95.76
2018-12-10T07:36:20.296Z,95.86
2018-12-10T07:38:52.570Z,97.03
2018-12-10T07:41:28.797Z,97.36
2018-12-10T07:44:00.790Z,97.23
2018-12-10T07:46:36.879Z,95.94
2018-12-10T07:49:09.760Z,96.30
2018-12-10T07:51:42.151Z,96.67
2018-12-10T07:54:19.590Z,96.79
2018-12-10T07:56:51.676Z,96.59
2018-12-10T07:59:22.005Z,96.41
2018-12-10T08:01:54.938Z,96.48
2018-12-10T08:04:30.975Z,96.37
2018-12-10T08:07:03.941Z,96.02
2018-12-10T08:09:40.179Z,96.28
2018-12-10T08:12:16.377Z,96.25
2018-12-10T08:14:48.552Z,96.00
2018-12-10T08:17:18.740Z,95.88
2018-12-10T08:19:51.342Z,95.93
2018-12-10T08:22:24.383Z,95.91
2018-12-10T08:24:57.212Z,96.20
2018-12-10T08:27:29.413Z,96.09
2018-12-10T08:30:06.303Z,95.81
2018-12-10T08:32:36.622Z,95.62
2018-12-10T08:35:12.828Z,94.78
2018-12-10T08:37:48.813Z,94.47
2018-12-10T08:40:21.145Z,93.55
2018-12-10T08:42:55.030Z,93.61
2018-12-10T08:45:27.228Z,93.43
2018-12-10T08:48:03.231Z,93.14
2018-12-10T08:50:39.451Z,93.58
2018-12-10T08:53:12.415Z,93.20
2018-12-10T08:55:44.763Z,93.06
2018-12-10T08:58:20.973Z,93.11
2018-12-10T09:00:53.200Z,93.38
2018-12-10T09:03:25.990Z,93.07
2018-12-10T09:05:58.364Z,93.10
2018-12-10T09:08:30.690Z,93.51
2018-12-10T09:11:02.820Z,92.88
2018-12-10T09:13:38.922Z,93.04
2018-12-10T09:16:09.269Z,92.51
2018-12-10T09:18:42.261Z,91.02
2018-12-10T09:21:14.335Z,90.84
2018-12-10T09:23:47.085Z,89.46
2018-12-10T09:26:23.255Z,88.52
2018-12-10T09:28:59.417Z,89.79
2018-12-10T09:31:31.668Z,88.46
2018-12-10T09:34:07.962Z,88.42
2018-12-10T09:36:44.123Z,88.18
2018-12-10T09:39:15.003Z,88.89
2018-12-10T09:41:45.048Z,87.52
2018-12-10T09:44:21.281Z,87.77
2018-12-10T09:46:58.757Z,87.71
2018-12-10T09:49:25.674Z,86.05
2018-12-10T09:51:58.164Z,85.33
2018-12-10T09:54:34.181Z,83.73
2018-12-10T09:57:07.869Z,82.15
2018-12-10T09:59:40.265Z,80.89
2018-12-10T10:02:16.317Z,81.04
2018-12-10T10:04:46.666Z,80.17
2018-12-10T10:07:18.992Z,78.71
2018-12-10T10:09:58.740Z,78.18
2018-12-10T10:12:32.664Z,76.01
2018-12-10T10:15:05.464Z,74.96
2018-12-10T10:17:42.387Z,75.16
2018-12-10T10:20:19.353Z,74.32
2018-12-10T10:22:51.517Z,72.93
2018-12-10T10:25:23.707Z,72.59
2018-12-10T10:27:59.951Z,70.85
2018-12-10T10:30:36.132Z,70.29
2018-12-10T10:33:09.182Z,68.12
2018-12-10T10:35:45.351Z,67.86
2018-12-10T10:38:18.354Z,68.05
2018-12-10T10:40:48.730Z,66.89
2018-12-10T10:43:19.747Z,65.37
2018-12-10T10:45:53.213Z,66.74
2018-12-10T10:48:25.430Z,65.55
2018-12-10T10:50:58.509Z,65.48
2018-12-10T10:53:31.517Z,65.16
2018-12-10T10:56:04.760Z,64.32
2018-12-10T10:58:37.627Z,65.33
2018-12-10T11:01:19.365Z,65.92
2018-12-10T11:03:52.337Z,67.57
2018-12-10T11:06:25.285Z,66.10
2018-12-10T11:08:58.211Z,65.33
2018-12-10T11:11:30.365Z,64.00
2018-12-10T11:14:06.690Z,64.37
2018-12-10T11:16:43.608Z,63.33
2018-12-10T11:19:15.964Z,63.60
2018-12-10T11:21:53.025Z,65.26
2018-12-10T11:24:29.214Z,62.67
2018-12-10T11:27:06.102Z,62.70
2018-12-10T11:29:39.081Z,63.26
2018-12-10T11:32:11.285Z,63.53
2018-12-10T11:34:49.447Z,63.45
2018-12-10T11:37:22.461Z,63.24
2018-12-10T11:39:52.876Z,65.05
2018-12-10T11:42:25.130Z,65.74
2018-12-10T11:44:57.479Z,66.18
2018-12-10T11:47:29.941Z,65.16
2018-12-10T11:50:02.130Z,65.73
2018-12-10T11:52:37.820Z,68.04
2018-12-10T11:55:09.076Z,68.51
2018-12-10T11:57:41.461Z,68.74
2018-12-10T12:00:29.638Z,69.78
2018-12-10T12:03:00.817Z,72.22
2018-12-10T12:05:34.023Z,74.12
2018-12-10T12:08:06.345Z,75.86
2018-12-10T12:10:43.369Z,75.08
2018-12-10T12:13:20.286Z,75.84
2018-12-10T12:15:53.214Z,77.13
2018-12-10T12:18:26.262Z,77.76
2018-12-10T12:20:58.598Z,78.17
2018-12-10T12:23:36.556Z,76.69
2018-12-10T12:26:10.233Z,77.37
2018-12-10T12:28:47.099Z,77.83
2018-12-10T12:31:23.850Z,76.45
2018-12-10T12:33:59.986Z,76.29
2018-12-10T12:36:32.938Z,75.68
2018-12-10T12:39:06.697Z,76.81
2018-12-10T12:41:40.315Z,76.54
2018-12-10T12:44:17.311Z,76.97
2018-12-10T12:46:53.647Z,77.11
2018-12-10T12:49:25.833Z,77.34
2018-12-10T12:51:58.316Z,76.24
2018-12-10T12:54:30.574Z,76.50
2018-12-10T12:57:03.533Z,75.74
2018-12-10T12:59:39.692Z,76.40
2018-12-10T13:02:11.742Z,77.04
2018-12-10T13:04:43.956Z,77.08
2018-12-10T13:07:16.372Z,77.50
2018-12-10T13:09:48.452Z,76.38
2018-12-10T13:12:20.552Z,77.17
2018-12-10T13:14:53.067Z,76.89
2018-12-10T13:17:25.824Z,77.39
2018-12-10T13:19:57.979Z,77.22
2018-12-10T13:22:28.879Z,76.77
2018-12-10T13:24:59.078Z,76.55
2018-12-10T13:27:35.248Z,77.13
2018-12-10T13:30:08.362Z,77.15
2018-12-10T13:32:41.241Z,76.71
2018-12-10T13:35:13.268Z,77.21
2018-12-10T13:37:46.005Z,77.13
2018-12-10T13:40:19.789Z,75.66
2018-12-10T13:42:49.967Z,75.54
2018-12-10T13:45:23.298Z,75.82
2018-12-10T13:47:56.109Z,76.18
2018-12-10T13:50:28.374Z,75.72
2018-12-10T13:52:59.394Z,76.52
2018-12-10T13:55:31.743Z,75.05
2018-12-10T13:58:07.927Z,75.13
2018-12-10T14:00:44.810Z,75.54
2018-12-10T14:03:15.276Z,74.31
2018-12-10T14:05:47.678Z,75.46
2018-12-10T14:08:21.357Z,75.14
2018-12-10T14:10:53.747Z,75.34
2018-12-10T14:13:25.894Z,75.34
2018-12-10T14:16:02.105Z,75.23
2018-12-10T14:18:34.357Z,75.50
2018-12-10T14:21:06.624Z,75.47
2018-12-10T14:23:38.725Z,74.57
2018-12-10T14:26:08.888Z,73.74
2018-12-10T14:28:41.147Z,73.63
2018-12-10T14:31:17.229Z,74.70
2018-12-10T14:33:50.295Z,74.07
2018-12-10T14:36:27.314Z,73.13
2018-12-10T14:38:59.668Z,74.49
2018-12-10T14:41:32.552Z,72.44
2018-12-10T14:44:05.520Z,69.83
2018-12-10T14:46:37.753Z,69.40
2018-12-10T14:49:15.144Z,68.31
2018-12-10T14:51:47.947Z,68.38
2018-12-10T14:54:20.046Z,68.77
2018-12-10T14:56:52.208Z,70.91
2018-12-10T14:59:28.313Z,69.52
2018-12-10T15:02:04.631Z,69.06
2018-12-10T15:04:40.696Z,69.64
2018-12-10T15:07:13.792Z,69.46
2018-12-10T15:09:49.975Z,67.74
2018-12-10T15:12:26.398Z,66.62
2018-12-10T15:14:59.353Z,67.33
2018-12-10T15:17:31.695Z,67.56
2018-12-10T15:20:07.880Z,67.54
2018-12-10T15:22:44.059Z,70.25
2018-12-10T15:25:16.217Z,68.74
2018-12-10T15:27:48.583Z,67.55
2018-12-10T15:30:20.686Z,67.78
2018-12-10T15:32:57.674Z,70.79
2018-12-10T15:35:31.046Z,70.13
2018-12-10T15:38:03.647Z,70.75
2018-12-10T15:40:37.769Z,71.82
2018-12-10T15:43:14.068Z,72.22
2018-12-10T15:45:46.403Z,72.51
2018-12-10T15:48:19.302Z,74.79
2018-12-10T15:50:52.944Z,74.83
2018-12-10T15:53:25.874Z,75.23
2018-12-10T15:56:02.055Z,75.45
2018-12-10T15:58:39.105Z,76.40
2018-12-10T16:01:14.789Z,77.56
2018-12-10T16:03:51.670Z,78.28
2018-12-10T16:06:24.421Z,77.67
2018-12-10T16:09:00.500Z,77.93
2018-12-10T16:11:30.753Z,77.97
2018-12-10T16:14:07.075Z,78.93
2018-12-10T16:16:39.464Z,78.78
2018-12-10T16:19:11.473Z,80.38
2018-12-10T16:21:47.697Z,80.77
2018-12-10T16:24:19.818Z,79.85
2018-12-10T16:26:55.979Z,80.19
2018-12-10T16:29:28.072Z,81.06
2018-12-10T16:32:01.066Z,81.80
2018-12-10T16:34:33.459Z,81.01
2018-12-10T16:37:06.447Z,80.90
2018-12-10T16:39:36.690Z,82.03
2018-12-10T16:42:12.858Z,82.52
2018-12-10T16:54:48.104Z,82.29
2018-12-10T16:57:24.141Z,84.44
2018-12-10T16:59:56.523Z,82.76
2018-12-10T17:02:29.301Z,83.11
2018-12-10T17:05:05.823Z,81.97
2018-12-10T17:07:41.952Z,82.38
2018-12-10T17:10:18.100Z,81.74
2018-12-10T17:12:54.202Z,82.56
2018-12-10T17:15:30.373Z,82.42
2018-12-10T17:18:02.480Z,83.24
2018-12-10T17:20:34.908Z,83.83
2018-12-10T17:23:07.886Z,84.10
2018-12-10T17:25:38.075Z,84.46
2018-12-10T17:28:14.379Z,83.88
2018-12-10T17:30:47.314Z,84.19
2018-12-10T17:33:19.361Z,84.16
2018-12-10T17:35:56.370Z,84.14
2018-12-10T17:38:29.397Z,83.80
2018-12-10T17:41:06.583Z,83.75
2018-12-10T17:43:37.033Z,83.91
2018-12-10T17:46:10.390Z,83.46
2018-12-10T17:48:41.251Z,82.97
2018-12-10T17:51:14.215Z,83.08
2018-12-10T17:58:46.551Z,82.97
2018-12-10T18:01:19.539Z,82.68
2018-12-10T18:03:56.881Z,82.87
2018-12-10T18:06:29.944Z,83.83
2018-12-10T18:09:07.498Z,83.38
2018-12-10T18:11:41.850Z,83.69
2018-12-10T18:14:14.904Z,83.36
2018-12-10T18:16:48.007Z,84.03
2018-12-10T18:19:21.506Z,83.35
2018-12-10T18:21:58.388Z,83.44
2018-12-10T18:24:31.490Z,83.75
2018-12-10T18:27:03.746Z,83.95
2018-12-10T18:29:39.889Z,83.66
2018-12-10T18:32:12.870Z,84.09
2018-12-10T18:34:49.640Z,85.01
2018-12-10T18:37:20.682Z,85.14
2018-12-10T18:39:57.770Z,86.29
2018-12-10T18:42:30.353Z,84.66
2018-12-10T18:45:02.907Z,84.90
2018-12-10T18:47:35.862Z,87.35
2018-12-10T18:50:12.075Z,86.86
2018-12-10T18:52:44.883Z,86.17
2018-12-10T18:55:15.253Z,91.86
2018-12-10T18:57:46.161Z,90.47
2018-12-10T19:00:18.358Z,90.86
2018-12-10T19:02:54.500Z,91.60
2018-12-10T19:05:30.755Z,88.47
2018-12-10T19:08:01.225Z,91.65
2018-12-10T19:10:34.049Z,92.85
2018-12-10T19:13:07.134Z,93.60
2018-12-10T19:15:40.074Z,91.12
2018-12-10T19:18:16.485Z,91.62
2018-12-10T19:20:49.393Z,92.27
2018-12-10T19:23:22.329Z,92.41
2018-12-10T19:25:53.286Z,88.19
2018-12-10T19:28:26.267Z,86.49
2018-12-10T19:30:59.353Z,86.87
2018-12-10T19:33:32.417Z,87.16
2018-12-10T19:36:05.447Z,86.95
2018-12-10T19:38:38.236Z,91.78
2018-12-10T19:41:15.490Z,91.93
2018-12-10T19:43:52.433Z,91.78
2018-12-10T19:46:23.528Z,91.25
2018-12-10T19:48:59.813Z,86.60
2018-12-10T19:51:35.993Z,86.45
2018-12-10T19:54:08.418Z,92.33
2018-12-10T19:56:41.453Z,86.40
2018-12-10T19:59:13.636Z,87.31
2018-12-10T20:01:44.726Z,91.51
2018-12-10T20:04:21.604Z,91.33
2018-12-10T20:06:59.355Z,92.74
2018-12-10T20:09:31.895Z,93.36
2018-12-10T20:12:04.271Z,87.92
2018-12-10T20:14:37.310Z,91.55
2018-12-10T20:17:15.124Z,92.98
2018-12-10T20:19:48.518Z,92.63
2018-12-10T20:22:21.586Z,90.51
2018-12-10T20:24:51.887Z,88.48
2018-12-10T20:27:22.921Z,88.79
2018-12-10T20:30:00.021Z,88.67
2018-12-10T20:32:30.346Z,89.66
2018-12-10T20:35:01.384Z,88.85
2018-12-10T20:37:34.558Z,89.60
2018-12-10T20:40:10.972Z,93.43
2018-12-10T20:42:42.037Z,94.98
2018-12-10T20:45:19.128Z,93.78
2018-12-10T20:47:52.336Z,94.06
2018-12-10T20:50:28.394Z,92.50
2018-12-10T20:53:02.176Z,89.45
2018-12-10T20:55:35.339Z,88.52
2018-12-10T20:58:07.427Z,89.67
2018-12-10T21:00:39.803Z,90.31
2018-12-10T21:03:17.186Z,89.87
2018-12-10T21:05:55.877Z,95.71
2018-12-10T21:08:28.178Z,94.01
2018-12-10T21:11:01.228Z,96.16
2018-12-10T21:13:37.567Z,90.57
2018-12-10T21:16:09.935Z,91.01
2018-12-10T21:18:43.178Z,90.10
2018-12-10T21:21:16.054Z,90.13
2018-12-10T21:23:49.123Z,90.30
2018-12-10T21:26:25.346Z,90.42
2018-12-10T21:29:01.747Z,90.24
2018-12-10T21:31:38.137Z,90.97
2018-12-10T21:34:11.199Z,90.95
2018-12-10T21:36:44.199Z,89.98
2018-12-10T21:39:17.288Z,90.20
2018-12-10T21:41:50.373Z,90.47
2018-12-10T21:44:22.954Z,90.02
2018-12-10T21:46:55.943Z,90.57
2018-12-10T21:49:33.003Z,91.94
2018-12-10T21:52:09.264Z,90.80
2018-12-10T21:54:46.426Z,90.79
2018-12-10T21:57:19.327Z,91.39
2018-12-10T21:59:55.749Z,91.38
2018-12-10T22:02:32.060Z,91.02
2018-12-10T22:05:05.407Z,91.15
2018-12-10T22:07:38.275Z,92.69
2018-12-10T22:10:10.527Z,91.91
2018-12-10T22:12:46.764Z,91.36
2018-12-10T22:15:19.831Z,91.05
2018-12-10T22:17:52.546Z,90.90
2018-12-10T22:20:24.656Z,90.91
2018-12-10T22:22:57.049Z,90.85
2018-12-10T22:25:30.032Z,91.15
2018-12-10T22:28:03.007Z,91.66
2018-12-10T22:30:37.163Z,93.14
2018-12-10T22:33:10.842Z,92.47
2018-12-10T22:35:42.184Z,91.69
2018-12-10T22:38:15.141Z,91.62
2018-12-10T22:40:48.986Z,92.18
2018-12-10T22:43:23.191Z,92.35
2018-12-10T22:46:00.367Z,92.25
2018-12-10T22:48:31.458Z,92.75
2018-12-10T22:51:02.450Z,93.53
2018-12-10T22:53:38.712Z,93.28
2018-12-10T22:56:15.671Z,92.72
2018-12-10T22:58:51.821Z,93.57
2018-12-10T23:01:28.029Z,92.79
2018-12-10T23:04:00.257Z,92.96
2018-12-10T23:11:33.733Z,93.48
2018-12-10T23:14:06.625Z,94.01
2018-12-10T23:16:39.623Z,95.79
2018-12-10T23:19:11.795Z,94.87
2018-12-10T23:21:44.079Z,95.17
2018-12-10T23:24:16.884Z,95.60
2018-12-10T23:26:49.308Z,94.65
2018-12-10T23:29:25.522Z,95.13
2018-12-10T23:32:01.767Z,95.19
2018-12-10T23:34:33.889Z,95.34
2018-12-10T23:37:07.378Z,95.18
2018-12-10T23:39:40.408Z,94.86
2018-12-10T23:42:13.467Z,95.09
2018-12-10T23:44:51.148Z,95.02
2018-12-10T23:47:28.000Z,94.73
2018-12-10T23:50:05.241Z,94.15
2018-12-10T23:52:38.364Z,94.30
2018-12-10T23:55:08.383Z,94.27
2018-12-10T23:57:40.426Z,94.37
